Time;durP1;ratioP1;P1;durP2;ratioP2;P2;SDS_P1;SDS_P2;PMS_P1;PMS_P2;Temp;Humidity;BMP_temperature;BMP_pressure;BME280_temperature;BME280_humidity;BME280_pressure;Samples;Min_cycle;Max_cycle;Signal;HPM_P1;HPM_P2
2023/09/19 00:01:33;;;;;;;2.73;2.43;;;17.10;99.90;;;;;;4998439;28;20455;-53
2023/09/19 00:04:00;;;;;;;5.93;2.40;;;17.20;99.90;;;;;;5000697;28;20439;-55
2023/09/19 00:06:27;;;;;;;7.63;2.63;;;17.10;67.90;;;;;;4997559;28;20490;-55
2023/09/19 00:08:54;;;;;;;4.10;2.60;;;17.10;91.80;;;;;;5000784;28;20441;-56
2023/09/19 00:11:20;;;;;;;4.60;2.20;;;17.10;99.90;;;;;;4996499;28;20526;-56
2023/09/19 00:13:49;;;;;;;4.17;2.20;;;17.10;99.90;;;;;;4997288;28;20573;-55
2023/09/19 00:16:15;;;;;;;3.50;2.40;;;17.10;99.90;;;;;;4996102;28;20276;-56
2023/09/19 00:18:40;;;;;;;3.43;2.30;;;17.10;99.90;;;;;;5003388;28;20637;-54
2023/09/19 00:21:07;;;;;;;7.03;3.10;;;17.10;99.90;;;;;;5000104;28;20205;-56
2023/09/19 00:23:32;;;;;;;2.20;1.93;;;17.00;99.90;;;;;;4996406;28;20232;-56
2023/09/19 00:25:59;;;;;;;3.00;2.40;;;17.00;1.00;;;;;;5002250;28;20422;-55
2023/09/19 00:28:24;;;;;;;6.60;2.93;;;17.00;1.00;;;;;;4996222;28;20286;-56
2023/09/19 00:30:50;;;;;;;3.60;2.53;;;17.00;1.00;;;;;;5000824;28;21180;-56
2023/09/19 00:33:16;;;;;;;3.60;2.70;;;17.00;99.90;;;;;;4996149;28;20201;-56
2023/09/19 00:35:52;;;;;;;5.40;2.13;;;17.10;99.90;;;;;;5002691;28;20187;-56
2023/09/19 00:38:22;;;;;;;7.00;2.60;;;17.00;99.90;;;;;;4999279;28;20275;-55
2023/09/19 00:40:48;;;;;;;3.20;2.40;;;17.00;99.90;;;;;;4997917;28;20930;-55
2023/09/19 00:43:14;;;;;;;2.90;2.60;;;17.00;99.90;;;;;;5001926;28;20447;-56
2023/09/19 00:45:44;;;;;;;7.53;2.90;;;17.00;99.90;;;;;;4997675;28;20803;-56
2023/09/19 00:48:10;;;;;;;5.83;2.77;;;17.00;99.90;;;;;;4996719;28;20626;-54
2023/09/19 00:50:36;;;;;;;6.70;3.03;;;17.00;99.90;;;;;;4997101;28;20493;-55
2023/09/19 00:53:09;;;;;;;5.00;3.07;;;17.00;99.90;;;;;;4999596;28;20974;-54
2023/09/19 00:55:37;;;;;;;8.83;3.37;;;17.00;99.90;;;;;;4999449;28;20205;-56
2023/09/19 00:58:03;;;;;;;11.03;2.90;;;17.00;99.90;;;;;;5001659;28;20479;-56
2023/09/19 01:00:29;;;;;;;5.40;3.23;;;17.00;99.90;;;;;;4998038;28;20979;-56
2023/09/19 01:02:55;;;;;;;6.37;3.17;;;17.00;99.90;;;;;;5004394;28;20185;-54
2023/09/19 01:05:21;;;;;;;7.30;2.97;;;17.00;99.90;;;;;;4996274;28;20842;-57
2023/09/19 01:07:49;;;;;;;6.30;2.90;;;16.90;99.90;;;;;;5004311;28;20440;-57
2023/09/19 01:10:20;;;;;;;9.07;3.30;;;16.90;99.90;;;;;;5006139;28;20205;-56
2023/09/19 01:13:10;;;;;;;6.20;3.30;;;17.00;99.90;;;;;;5006255;28;20937;-57
2023/09/19 01:15:36;;;;;;;5.63;3.67;;;16.90;99.90;;;;;;5001240;28;20454;-56
2023/09/19 01:18:33;;;;;;;5.00;3.27;;;16.90;1.00;;;;;;5005565;28;20476;-56
2023/09/19 01:21:37;;;;;;;5.20;3.33;;;17.00;1.00;;;;;;4999503;28;20208;-55
2023/09/19 01:24:23;;;;;;;4.67;3.70;;;17.00;1.00;;;;;;5001164;28;20485;-55
2023/09/19 01:27:16;;;;;;;8.13;3.67;;;16.90;99.90;;;;;;5006778;28;20830;-55
2023/09/19 01:29:46;;;;;;;5.87;3.47;;;16.90;1.00;;;;;;5003073;28;20503;-57
2023/09/19 01:32:15;;;;;;;5.50;3.30;;;16.90;99.90;;;;;;4999234;28;20444;-56
2023/09/19 01:34:48;;;;;;;5.83;3.60;;;16.90;99.90;;;;;;5004288;28;20920;-55
2023/09/19 01:37:19;;;;;;;9.00;3.50;;;16.90;99.90;;;;;;4999691;28;20581;-57
2023/09/19 01:39:49;;;;;;;9.57;3.30;;;16.90;99.90;;;;;;5005247;28;20787;-55
2023/09/19 01:42:30;;;;;;;11.20;2.97;;;16.90;1.00;;;;;;5010823;28;20449;-56
2023/09/19 01:45:05;;;;;;;5.63;2.80;;;16.90;1.00;;;;;;4999508;28;20440;-55
2023/09/19 01:47:51;;;;;;;5.90;2.50;;;16.90;99.90;;;;;;5002375;28;20464;-56
2023/09/19 01:50:36;;;;;;;4.83;2.47;;;16.90;99.90;;;;;;5002694;28;20443;-56
2023/09/19 01:53:13;;;;;;;6.73;2.60;;;16.90;99.90;;;;;;5003219;28;20485;-55
2023/09/19 01:55:49;;;;;;;6.30;2.70;;;16.80;99.90;;;;;;4999242;28;20800;-54
2023/09/19 01:58:19;;;;;;;9.27;2.20;;;16.80;99.90;;;;;;4998892;28;20644;-56
2023/09/19 02:00:48;;;;;;;8.20;2.27;;;16.70;99.90;;;;;;5002472;28;20440;-54
2023/09/19 02:03:14;;;;;;;5.73;2.40;;;16.70;99.90;;;;;;5005656;28;20872;-54
2023/09/19 02:05:40;;;;;;;6.50;2.70;;;16.70;99.90;;;;;;5001334;28;20806;-56
2023/09/19 02:08:06;;;;;;;5.27;2.43;;;16.60;99.90;;;;;;5001064;28;20442;-56
2023/09/19 02:10:31;;;;;;;3.93;2.33;;;16.60;99.90;;;;;;5000102;28;20192;-57
2023/09/19 02:12:57;;;;;;;4.87;2.50;;;16.60;99.90;;;;;;5000088;28;20272;-57
2023/09/19 02:15:22;;;;;;;4.60;2.70;;;16.50;99.90;;;;;;5001729;28;20199;-54
2023/09/19 02:17:48;;;;;;;7.73;3.50;;;16.50;99.90;;;;;;5002606;28;20263;-57
2023/09/19 02:20:14;;;;;;;7.00;3.10;;;16.50;99.90;;;;;;5002249;28;20237;-55
2023/09/19 02:22:41;;;;;;;7.53;3.53;;;16.40;1.00;;;;;;4999735;28;20285;-56
2023/09/19 02:25:08;;;;;;;5.77;3.67;;;16.40;1.00;;;;;;5000859;28;20439;-57
2023/09/19 02:27:34;;;;;;;3.67;3.20;;;16.30;1.00;;;;;;5001937;28;20867;-56
2023/09/19 02:30:03;;;;;;;8.40;4.57;;;16.30;1.00;;;;;;4998866;28;20478;-55
2023/09/19 02:32:30;;;;;;;7.13;4.50;;;16.30;99.90;;;;;;5000852;28;20192;-54
2023/09/19 02:34:57;;;;;;;7.00;4.43;;;16.30;99.90;;;;;;4996909;28;20442;-54
2023/09/19 02:37:23;;;;;;;10.60;4.30;;;16.20;1.00;;;;;;5000567;28;21078;-54
2023/09/19 02:39:49;;;;;;;10.53;4.50;;;16.20;1.00;;;;;;4998377;28;20530;-54
2023/09/19 02:42:14;;;;;;;8.73;5.17;;;16.20;99.90;;;;;;5005513;28;20188;-55
2023/09/19 02:44:40;;;;;;;8.30;4.60;;;16.20;99.90;;;;;;4997409;28;20192;-54
2023/09/19 02:47:05;;;;;;;10.80;4.50;;;16.20;1.00;;;;;;4997597;28;20192;-56
2023/09/19 02:49:31;;;;;;;7.97;4.33;;;16.10;1.00;;;;;;5001698;28;20182;-56
2023/09/19 02:51:59;;;;;;;8.60;4.67;;;16.20;1.00;;;;;;4997080;28;20191;-56
2023/09/19 02:54:25;;;;;;;10.73;4.50;;;16.20;1.00;;;;;;4998267;28;20452;-56
2023/09/19 02:56:50;;;;;;;8.13;4.17;;;16.20;1.00;;;;;;4997273;28;20437;-57
2023/09/19 02:59:16;;;;;;;11.20;3.60;;;16.20;99.90;;;;;;4999963;28;20440;-55
2023/09/19 03:01:47;;;;;;;6.13;3.73;;;16.20;9.70;;;;;;5000780;28;20282;-55
2023/09/19 03:04:16;;;;;;;16.43;3.90;;;16.30;1.00;;;;;;5000406;28;20980;-55
2023/09/19 03:06:41;;;;;;;9.10;3.47;;;16.30;1.00;;;;;;4998284;28;20526;-55
2023/09/19 03:09:11;;;;;;;6.80;3.17;;;16.30;1.00;;;;;;5001294;28;20533;-56
2023/09/19 03:11:37;;;;;;;8.70;2.47;;;16.30;99.90;;;;;;4997834;28;20196;-54
2023/09/19 03:14:04;;;;;;;6.93;3.00;;;16.30;16.80;;;;;;5000781;28;20451;-55
2023/09/19 03:16:29;;;;;;;9.23;3.50;;;16.30;1.00;;;;;;5004793;28;20431;-56
2023/09/19 03:18:55;;;;;;;10.17;2.97;;;16.30;1.00;;;;;;4997301;28;20468;-55
2023/09/19 03:21:21;;;;;;;13.27;2.63;;;16.30;1.00;;;;;;4997083;28;20724;-55
2023/09/19 03:23:47;;;;;;;7.17;2.80;;;16.30;1.00;;;;;;4998606;28;20232;-55
2023/09/19 03:26:14;;;;;;;6.57;3.00;;;16.30;1.00;;;;;;5001141;28;20450;-55
2023/09/19 03:28:40;;;;;;;5.77;3.13;;;16.30;1.00;;;;;;4997509;28;20247;-54
2023/09/19 03:31:07;;;;;;;7.87;2.80;;;16.30;99.90;;;;;;4996865;28;20990;-55
2023/09/19 03:33:33;;;;;;;4.07;2.70;;;16.30;1.00;;;;;;5005621;28;20485;-56
2023/09/19 03:36:01;;;;;;;6.30;2.70;;;16.30;1.00;;;;;;5000783;28;20431;-56
2023/09/19 03:38:29;;;;;;;7.60;3.10;;;16.30;1.00;;;;;;4999849;28;21626;-56
2023/09/19 03:40:55;;;;;;;8.13;2.97;;;16.30;1.00;;;;;;4999273;28;20431;-54
2023/09/19 03:43:20;;;;;;;6.57;3.00;;;16.30;1.00;;;;;;4997169;28;20446;-55
2023/09/19 03:45:46;;;;;;;11.10;3.27;;;16.20;1.00;;;;;;5003832;28;20571;-55
2023/09/19 03:48:12;;;;;;;5.13;2.90;;;16.20;1.00;;;;;;4999052;28;20188;-55
2023/09/19 03:50:39;;;;;;;3.77;2.97;;;16.20;1.00;;;;;;4997670;28;20267;-56
2023/09/19 03:53:07;;;;;;;6.53;3.00;;;16.10;1.00;;;;;;5000471;28;20443;-54
2023/09/19 03:55:32;;;;;;;11.93;2.90;;;16.10;1.00;;;;;;5000042;28;20447;-55
2023/09/19 03:57:58;;;;;;;10.40;3.67;;;16.10;1.00;;;;;;4998406;28;20823;-56
2023/09/19 04:00:26;;;;;;;9.50;3.07;;;16.00;1.00;;;;;;4997053;28;20722;-56
2023/09/19 04:02:53;;;;;;;9.57;2.43;;;15.90;1.00;;;;;;4997604;28;20219;-53
2023/09/19 04:05:19;;;;;;;6.33;2.80;;;15.80;1.00;;;;;;4998025;28;20440;-54
2023/09/19 04:07:44;;;;;;;5.40;2.30;;;15.80;99.90;;;;;;5002524;28;20824;-56
2023/09/19 04:10:14;;;;;;;7.03;2.70;;;15.80;99.90;;;;;;4997721;28;20192;-54
2023/09/19 04:12:40;;;;;;;9.00;2.70;;;15.70;99.90;;;;;;5000506;28;20192;-56
2023/09/19 04:15:06;;;;;;;7.90;2.43;;;15.60;99.90;;;;;;5003838;28;20493;-56
2023/09/19 04:17:33;;;;;;;3.70;2.20;;;15.60;99.90;;;;;;5002516;28;20226;-55
2023/09/19 04:19:59;;;;;;;11.20;2.90;;;15.60;99.90;;;;;;5005973;28;20479;-55
2023/09/19 04:22:24;;;;;;;5.17;1.90;;;15.50;99.90;;;;;;5002845;28;20524;-54
2023/09/19 04:24:50;;;;;;;7.03;2.80;;;15.50;99.90;;;;;;5000401;28;20439;-55
2023/09/19 04:27:15;;;;;;;6.90;2.43;;;15.40;99.40;;;;;;5001615;28;20238;-55
2023/09/19 04:29:44;;;;;;;9.50;2.67;;;15.40;84.40;;;;;;5003921;28;20195;-55
2023/09/19 04:32:09;;;;;;;13.53;2.93;;;15.30;66.80;;;;;;5000716;28;20206;-55
2023/09/19 04:34:35;;;;;;;6.00;2.13;;;15.30;89.00;;;;;;5000414;28;20450;-55
2023/09/19 04:37:01;;;;;;;11.23;2.10;;;15.20;88.70;;;;;;5000676;28;20199;-57
2023/09/19 04:39:28;;;;;;;5.10;2.00;;;15.20;92.00;;;;;;5001599;28;20197;-54
2023/09/19 04:41:54;;;;;;;10.20;2.43;;;15.10;87.30;;;;;;5001397;28;20532;-54
2023/09/19 04:44:21;;;;;;;5.80;2.10;;;15.10;96.30;;;;;;5002396;28;20998;-55
2023/09/19 04:46:46;;;;;;;6.03;2.40;;;15.10;76.50;;;;;;5004209;28;20471;-55
2023/09/19 04:49:13;;;;;;;9.37;2.57;;;15.00;85.90;;;;;;5001688;28;20803;-56
2023/09/19 04:51:39;;;;;;;7.30;2.30;;;15.00;97.20;;;;;;4999977;28;20188;-54
2023/09/19 04:54:05;;;;;;;8.53;2.27;;;14.90;95.00;;;;;;5003494;28;20438;-55
2023/09/19 04:56:32;;;;;;;7.90;2.40;;;14.90;99.90;;;;;;5000586;28;20836;-55
2023/09/19 04:59:00;;;;;;;8.03;2.40;;;14.90;99.90;;;;;;5005727;28;20470;-54
2023/09/19 05:01:26;;;;;;;9.63;2.77;;;14.90;99.90;;;;;;5000836;28;20449;-55
2023/09/19 05:03:52;;;;;;;7.77;2.17;;;14.90;99.90;;;;;;5003161;28;20443;-56
2023/09/19 05:06:22;;;;;;;5.43;2.20;;;14.80;99.90;;;;;;5002721;28;20835;-56
2023/09/19 05:08:52;;;;;;;4.97;2.13;;;14.80;99.90;;;;;;5003010;28;20434;-54
2023/09/19 05:11:20;;;;;;;12.60;2.63;;;14.70;99.90;;;;;;5006422;28;20446;-55
2023/09/19 05:13:46;;;;;;;11.43;2.50;;;14.70;99.90;;;;;;5002298;28;20495;-55
2023/09/19 05:16:12;;;;;;;4.67;2.10;;;14.70;99.90;;;;;;5007570;28;20440;-53
2023/09/19 05:18:37;;;;;;;4.53;2.13;;;14.70;99.90;;;;;;5007943;28;20264;-55
2023/09/19 05:21:03;;;;;;;7.27;2.90;;;14.70;99.90;;;;;;5005391;28;20522;-55
2023/09/19 05:23:28;;;;;;;10.03;2.40;;;14.70;99.90;;;;;;5004919;28;20314;-54
2023/09/19 05:25:56;;;;;;;6.10;2.47;;;14.70;99.90;;;;;;5004944;28;20191;-55
2023/09/19 05:28:22;;;;;;;6.97;2.20;;;14.70;99.90;;;;;;5005262;28;20194;-55
2023/09/19 05:30:48;;;;;;;7.47;2.50;;;14.60;99.90;;;;;;5002918;28;20441;-55
2023/09/19 05:33:14;;;;;;;9.50;2.63;;;14.60;99.90;;;;;;5007420;28;20199;-54
2023/09/19 05:35:41;;;;;;;8.20;2.43;;;14.60;99.90;;;;;;5006731;28;20448;-55
2023/09/19 05:38:08;;;;;;;5.70;2.30;;;14.60;99.90;;;;;;5005012;28;20266;-55
2023/09/19 05:40:34;;;;;;;6.20;2.43;;;14.60;99.90;;;;;;5007607;28;20464;-55
2023/09/19 05:43:02;;;;;;;11.47;3.10;;;14.60;99.90;;;;;;4997327;28;20596;-53
2023/09/19 05:45:27;;;;;;;5.73;2.00;;;14.60;99.90;;;;;;4998525;28;20438;-56
2023/09/19 05:48:04;;;;;;;6.60;2.20;;;14.60;99.90;;;;;;5001985;28;20791;-54
2023/09/19 05:50:29;;;;;;;9.03;2.63;;;14.60;99.90;;;;;;5004766;28;20188;-53
2023/09/19 05:52:58;;;;;;;8.70;2.70;;;14.60;99.90;;;;;;5001828;28;20784;-54
2023/09/19 05:55:28;;;;;;;6.80;2.30;;;14.60;99.90;;;;;;5004870;28;20202;-55
2023/09/19 05:57:54;;;;;;;8.37;2.70;;;14.60;99.90;;;;;;4999025;28;20509;-53
2023/09/19 06:00:23;;;;;;;10.30;2.50;;;14.70;99.90;;;;;;4998793;28;20947;-56
2023/09/19 06:02:53;;;;;;;5.13;2.60;;;14.70;99.90;;;;;;5004214;28;20209;-55
2023/09/19 06:05:19;;;;;;;8.80;2.90;;;14.80;99.90;;;;;;5002069;28;20450;-54
2023/09/19 06:07:45;;;;;;;6.73;2.40;;;15.00;99.90;;;;;;5002538;28;20431;-55
2023/09/19 06:10:10;;;;;;;6.27;2.40;;;15.00;99.90;;;;;;4999363;28;20788;-56
2023/09/19 06:12:40;;;;;;;8.57;3.40;;;15.10;99.90;;;;;;5008114;28;20188;-53
2023/09/19 06:15:12;;;;;;;9.27;2.40;;;15.20;99.90;;;;;;5007788;28;20285;-54
2023/09/19 06:17:38;;;;;;;8.30;2.70;;;15.40;99.90;;;;;;5004872;28;20487;-55
2023/09/19 06:20:14;;;;;;;10.90;2.47;;;15.50;74.10;;;;;;4999804;28;20453;-54
2023/09/19 06:22:44;;;;;;;5.73;2.87;;;15.60;27.00;;;;;;5002923;28;20243;-56
2023/09/19 06:25:11;;;;;;;7.53;2.77;;;15.70;13.00;;;;;;5005367;28;20443;-55
2023/09/19 06:27:42;;;;;;;8.00;2.07;;;15.70;1.00;;;;;;4999903;28;20796;-55
2023/09/19 06:30:09;;;;;;;14.63;2.70;;;15.70;1.00;;;;;;5003837;28;20507;-56
2023/09/19 06:32:35;;;;;;;6.40;2.57;;;15.70;1.00;;;;;;5000927;28;21199;-56
2023/09/19 06:35:02;;;;;;;10.53;2.63;;;15.80;1.00;;;;;;5002752;28;20828;-56
2023/09/19 06:37:28;;;;;;;6.17;2.73;;;15.80;1.00;;;;;;5000385;28;20912;-55
2023/09/19 06:39:53;;;;;;;15.33;2.90;;;15.80;1.00;;;;;;5001433;28;20811;-54
2023/09/19 06:42:19;;;;;;;6.83;2.60;;;15.80;1.00;;;;;;5001384;28;20479;-57
2023/09/19 06:44:45;;;;;;;6.73;2.83;;;15.80;1.00;;;;;;4997173;28;20247;-54
2023/09/19 06:47:10;;;;;;;7.80;2.60;;;15.90;1.00;;;;;;4996907;28;20201;-57
2023/09/19 06:49:36;;;;;;;8.50;2.30;;;15.90;1.00;;;;;;5000079;28;20204;-56
2023/09/19 06:52:02;;;;;;;12.17;3.07;;;15.90;1.00;;;;;;5000786;28;20672;-56
2023/09/19 06:54:31;;;;;;;8.57;2.50;;;16.00;1.00;;;;;;5003515;28;20176;-54
2023/09/19 06:56:59;;;;;;;9.87;2.60;;;16.10;1.00;;;;;;4999805;28;20443;-55
2023/09/19 06:59:25;;;;;;;10.27;3.10;;;16.10;1.00;;;;;;4998176;28;20488;-56
2023/09/19 07:01:51;;;;;;;6.13;2.43;;;16.10;1.00;;;;;;5003815;28;20435;-56
2023/09/19 07:04:19;;;;;;;12.47;2.77;;;16.10;1.00;;;;;;4997079;28;20544;-56
2023/09/19 07:06:49;;;;;;;18.93;3.40;;;16.20;1.00;;;;;;4998062;28;20215;-57
2023/09/19 07:09:15;;;;;;;8.70;2.77;;;16.30;1.00;;;;;;5000596;28;20523;-56
2023/09/19 07:11:41;;;;;;;10.40;2.70;;;16.40;1.00;;;;;;5004946;28;20436;-56
2023/09/19 07:14:06;;;;;;;11.53;3.10;;;16.40;1.00;;;;;;5000981;28;20469;-56
2023/09/19 07:16:32;;;;;;;9.60;2.87;;;16.40;1.00;;;;;;4997843;28;20188;-57
2023/09/19 07:18:58;;;;;;;9.10;3.10;;;16.40;1.00;;;;;;4998368;28;20215;-55
2023/09/19 07:21:24;;;;;;;12.00;2.30;;;16.40;1.00;;;;;;4997831;28;20268;-54
2023/09/19 07:23:50;;;;;;;10.97;3.10;;;16.40;1.00;;;;;;4998341;28;20753;-55
2023/09/19 07:26:16;;;;;;;10.37;3.03;;;16.40;1.00;;;;;;5003757;28;20440;-54
2023/09/19 07:28:42;;;;;;;7.70;2.90;;;16.50;1.00;;;;;;5000765;28;20185;-56
2023/09/19 07:31:09;;;;;;;11.53;2.40;;;16.50;1.00;;;;;;5003010;28;20979;-54
2023/09/19 07:33:36;;;;;;;8.40;2.57;;;16.50;1.00;;;;;;5003031;28;20454;-56
2023/09/19 07:36:01;;;;;;;10.27;3.10;;;16.50;1.00;;;;;;4998990;28;21372;-56
2023/09/19 07:38:27;;;;;;;13.63;3.10;;;16.50;1.00;;;;;;5004199;28;20488;-55
2023/09/19 07:40:53;;;;;;;6.57;2.37;;;16.50;1.00;;;;;;5002536;28;20275;-56
2023/09/19 07:43:18;;;;;;;12.17;3.10;;;16.50;1.00;;;;;;4998461;28;20185;-56
2023/09/19 07:45:45;;;;;;;10.13;3.27;;;16.30;1.00;;;;;;4998183;28;20257;-56
2023/09/19 07:48:14;;;;;;;18.10;3.30;;;16.20;1.00;;;;;;5006052;28;20251;-54
2023/09/19 07:50:43;;;;;;;17.07;3.00;;;16.20;1.00;;;;;;5002546;28;20447;-50
2023/09/19 07:53:08;;;;;;;7.50;2.93;;;16.00;1.00;;;;;;5003494;28;20441;-51
2023/09/19 07:55:34;;;;;;;8.40;3.50;;;15.80;43.00;;;;;;4998284;28;21056;-51
2023/09/19 07:58:00;;;;;;;15.10;2.90;;;15.50;99.90;;;;;;5001384;28;20224;-52
2023/09/19 08:00:26;;;;;;;13.67;3.20;;;15.20;99.90;;;;;;4999740;28;20208;-50
2023/09/19 08:02:54;;;;;;;8.77;3.70;;;15.10;1.00;;;;;;4994691;28;20790;-50
2023/09/19 08:05:20;;;;;;;10.90;3.57;;;15.00;99.00;;;;;;5000484;28;20193;-50
2023/09/19 08:07:48;;;;;;;13.67;4.40;;;14.90;1.00;;;;;;4996682;28;20958;-50
2023/09/19 08:10:15;;;;;;;10.20;4.00;;;14.80;99.90;;;;;;5004291;28;20453;-50
2023/09/19 08:12:48;;;;;;;13.53;4.07;;;14.70;1.00;;;;;;5000297;28;20438;-50
2023/09/19 08:15:19;;;;;;;18.63;5.07;;;14.70;1.00;;;;;;4999354;28;20782;-48
2023/09/19 08:17:45;;;;;;;14.00;3.63;;;14.80;99.90;;;;;;4999619;28;20479;-49
2023/09/19 08:20:18;;;;;;;11.97;4.10;;;14.90;1.00;;;;;;5003355;28;20453;-50
2023/09/19 08:22:54;;;;;;;14.77;3.90;;;15.00;99.90;;;;;;5000309;28;20244;-49
2023/09/19 08:25:23;;;;;;;12.93;4.10;;;15.10;1.00;;;;;;4999441;28;20548;-51
2023/09/19 08:27:50;;;;;;;10.57;3.00;;;15.30;99.90;;;;;;5000872;28;20439;-51
2023/09/19 08:30:18;;;;;;;18.13;4.57;;;15.40;1.00;;;;;;4999109;28;20513;-50
2023/09/19 08:32:43;;;;;;;11.83;3.80;;;15.40;1.00;;;;;;4995785;28;20441;-51
2023/09/19 08:35:10;;;;;;;12.33;4.03;;;15.60;1.00;;;;;;4996581;28;20436;-51
2023/09/19 08:37:36;;;;;;;12.53;3.60;;;15.70;1.00;;;;;;5000008;28;20223;-52
2023/09/19 08:40:02;;;;;;;13.90;3.77;;;15.80;99.90;;;;;;4997745;28;20434;-51
2023/09/19 08:42:27;;;;;;;13.67;3.60;;;15.90;99.90;;;;;;5005050;28;20196;-50
2023/09/19 08:44:55;;;;;;;16.53;4.47;;;15.90;99.90;;;;;;4997490;28;20188;-51
2023/09/19 08:47:35;;;;;;;12.80;4.40;;;15.90;99.90;;;;;;4998887;28;20193;-51
2023/09/19 08:50:13;;;;;;;13.40;3.93;;;15.90;99.90;;;;;;4999822;28;20482;-51
2023/09/19 08:52:43;;;;;;;9.43;3.47;;;15.90;99.90;;;;;;4998153;28;20442;-51
2023/09/19 08:55:20;;;;;;;15.03;3.30;;;16.00;99.90;;;;;;4996450;28;20424;-51
2023/09/19 08:57:48;;;;;;;11.57;3.73;;;16.10;98.80;;;;;;5000358;28;20466;-50
2023/09/19 09:00:17;;;;;;;10.93;3.40;;;16.20;99.90;;;;;;4998144;28;20977;-51
2023/09/19 09:02:43;;;;;;;9.50;3.70;;;16.30;81.90;;;;;;4999593;28;20426;-51
2023/09/19 09:05:14;;;;;;;15.43;4.10;;;16.40;57.40;;;;;;4999130;28;20443;-50
2023/09/19 09:07:40;;;;;;;10.03;3.30;;;16.40;56.00;;;;;;4995876;28;20958;-51
2023/09/19 09:10:07;;;;;;;5.70;3.07;;;16.50;18.50;;;;;;4999251;28;20519;-50
2023/09/19 09:12:36;;;;;;;7.80;3.40;;;16.50;13.50;;;;;;4995847;28;20447;-50
2023/09/19 09:15:03;;;;;;;15.00;3.67;;;16.60;1.00;;;;;;4997097;28;20868;-51
2023/09/19 09:17:30;;;;;;;17.77;3.80;;;16.60;1.00;;;;;;4998884;28;21031;-51
2023/09/19 09:19:55;;;;;;;17.67;4.50;;;16.70;1.00;;;;;;4996753;28;20515;-50
2023/09/19 09:22:21;;;;;;;7.80;3.17;;;16.70;1.00;;;;;;4998272;28;21067;-51
2023/09/19 09:25:03;;;;;;;17.00;4.13;;;16.80;1.00;;;;;;4995874;28;20196;-51
2023/09/19 09:27:29;;;;;;;14.77;4.00;;;16.90;1.00;;;;;;5001933;28;20193;-50
2023/09/19 09:29:55;;;;;;;11.13;3.00;;;17.00;1.00;;;;;;5003351;28;20447;-50
2023/09/19 09:32:25;;;;;;;14.57;3.20;;;17.10;1.00;;;;;;5000999;28;20283;-51
2023/09/19 09:34:53;;;;;;;11.97;3.50;;;17.20;1.00;;;;;;5000680;28;20220;-50
2023/09/19 09:37:20;;;;;;;8.53;3.27;;;17.40;1.00;;;;;;4999061;28;20467;-52
2023/09/19 09:39:58;;;;;;;15.60;3.67;;;17.50;1.00;;;;;;4999074;28;20444;-51
2023/09/19 09:42:35;;;;;;;9.93;3.00;;;17.80;1.00;;;;;;5002513;28;20851;-52
2023/09/19 09:45:13;;;;;;;17.43;3.40;;;17.80;1.00;;;;;;5002870;28;20945;-53
2023/09/19 09:47:55;;;;;;;16.00;2.80;;;18.00;1.00;;;;;;4999213;28;20441;-52
2023/09/19 09:50:29;;;;;;;16.33;3.80;;;18.20;1.00;;;;;;5000434;28;20444;-51
2023/09/19 09:53:06;;;;;;;10.03;2.80;;;18.30;1.00;;;;;;5002528;28;20441;-52
2023/09/19 09:55:59;;;;;;;18.40;2.93;;;18.40;1.00;;;;;;4998271;28;20441;-52
2023/09/19 09:58:29;;;;;;;9.30;3.60;;;18.50;1.00;;;;;;5000385;28;20486;-53
2023/09/19 10:00:59;;;;;;;10.50;2.77;;;18.60;1.00;;;;;;4998452;28;20803;-50
2023/09/19 10:03:39;;;;;;;6.73;2.33;;;18.70;1.00;;;;;;5003175;28;20437;-51
2023/09/19 10:06:28;;;;;;;10.13;2.40;;;18.80;1.00;;;;;;4998936;28;20432;-52
2023/09/19 10:12:01;;;;;;;11.33;2.33;;;18.90;1.00;;;;;;5001842;28;20890;-51
2023/09/19 10:14:31;;;;;;;6.87;2.43;;;19.00;1.00;;;;;;5002754;28;20517;-52
2023/09/19 10:17:03;;;;;;;11.70;2.73;;;19.20;1.00;;;;;;5002751;28;20451;-52
2023/09/19 10:19:35;;;;;;;10.77;2.60;;;19.30;1.00;;;;;;4998791;28;20443;-51
2023/09/19 10:22:02;;;;;;;10.20;3.40;;;19.40;1.00;;;;;;5001326;28;20444;-52
2023/09/19 10:24:31;;;;;;;9.97;2.53;;;19.40;1.00;;;;;;4998871;28;20509;-51
2023/09/19 10:26:57;;;;;;;7.97;2.50;;;19.40;1.00;;;;;;5000027;28;20444;-51
2023/09/19 10:29:25;;;;;;;6.40;1.83;;;19.30;1.00;;;;;;4998143;28;23180;-51
2023/09/19 10:31:53;;;;;;;13.40;2.80;;;19.20;1.00;;;;;;5002260;28;20956;-51
2023/09/19 10:34:20;;;;;;;8.80;2.50;;;19.00;1.00;;;;;;4998189;28;21021;-51
2023/09/19 10:36:46;;;;;;;6.70;2.40;;;18.90;1.00;;;;;;5000571;28;20473;-52
2023/09/19 10:39:22;;;;;;;11.50;2.80;;;18.90;1.00;;;;;;4996969;28;20506;-51
2023/09/19 10:41:53;;;;;;;8.07;2.70;;;19.00;1.00;;;;;;4999070;28;20534;-52
2023/09/19 10:44:25;;;;;;;8.10;2.60;;;19.20;1.00;;;;;;4996880;28;20442;-51
2023/09/19 10:46:52;;;;;;;5.37;2.27;;;19.40;1.00;;;;;;5004217;28;20446;-51
2023/09/19 10:49:22;;;;;;;7.27;3.00;;;19.30;1.00;;;;;;4999047;28;21129;-51
2023/09/19 10:51:50;;;;;;;11.23;2.97;;;19.40;1.00;;;;;;4998121;28;20470;-50
2023/09/19 10:54:26;;;;;;;8.27;2.13;;;19.70;1.00;;;;;;4998204;28;20447;-51
2023/09/19 10:56:52;;;;;;;5.37;2.27;;;20.00;1.00;;;;;;4998760;28;20486;-51
2023/09/19 10:59:24;;;;;;;6.67;2.17;;;20.40;1.00;;;;;;4995463;28;20545;-51
2023/09/19 11:01:57;;;;;;;13.60;2.47;;;20.40;1.00;;;;;;4999655;28;20447;-51
2023/09/19 11:04:36;;;;;;;5.00;2.30;;;20.10;1.00;;;;;;4998293;28;20438;-51
2023/09/19 11:07:14;;;;;;;11.10;2.67;;;19.90;1.00;;;;;;4998857;28;20457;-51
2023/09/19 11:09:54;;;;;;;7.97;2.23;;;19.80;1.00;;;;;;5001895;28;20479;-51
2023/09/19 11:12:29;;;;;;;5.67;2.10;;;19.80;1.00;;;;;;5000412;28;20487;-52
2023/09/19 11:14:55;;;;;;;11.10;2.43;;;19.60;1.00;;;;;;4998672;28;20964;-52
2023/09/19 11:17:21;;;;;;;9.53;2.43;;;19.40;1.00;;;;;;5001582;28;20536;-52
2023/09/19 11:22:58;;;;;;;8.70;2.43;;;18.90;1.00;;;;;;5000112;28;20482;-51
2023/09/19 11:25:30;;;;;;;12.37;2.40;;;18.70;1.00;;;;;;4998425;28;20452;-52
2023/09/19 11:30:39;;;;;;;7.43;2.20;;;19.00;1.00;;;;;;5001282;28;20503;-52
2023/09/19 11:33:41;;;;;;;9.90;2.50;;;19.20;1.00;;;;;;4999177;28;20768;-53
2023/09/19 11:36:24;;;;;;;6.13;2.50;;;19.10;1.00;;;;;;4998301;28;20507;-52
2023/09/19 11:38:50;;;;;;;8.60;2.40;;;19.30;1.00;;;;;;4997047;28;20969;-53
2023/09/19 11:41:25;;;;;;;10.30;2.70;;;19.40;1.00;;;;;;4997150;28;20450;-51
2023/09/19 11:43:58;;;;;;;12.77;2.80;;;19.40;1.00;;;;;;5003851;28;20204;-52
2023/09/19 11:46:24;;;;;;;11.23;2.10;;;19.30;1.00;;;;;;5001693;28;20457;-53
2023/09/19 11:48:51;;;;;;;8.33;2.30;;;19.30;1.00;;;;;;4999582;28;20940;-51
2023/09/19 11:51:27;;;;;;;8.60;2.57;;;19.60;1.00;;;;;;4999308;28;20873;-52
2023/09/19 11:53:55;;;;;;;8.83;2.97;;;19.70;1.00;;;;;;5001548;28;20435;-52
2023/09/19 11:56:24;;;;;;;9.10;2.17;;;20.50;1.00;;;;;;4997409;28;20837;-53
2023/09/19 11:58:54;;;;;;;10.40;2.50;;;20.80;1.00;;;;;;4998319;28;20990;-52
2023/09/19 12:01:25;;;;;;;5.63;2.33;;;21.00;1.00;;;;;;5002118;28;20865;-52
2023/09/19 12:03:59;;;;;;;9.40;2.50;;;21.20;1.00;;;;;;4998164;28;20466;-53
2023/09/19 12:06:26;;;;;;;6.97;2.67;;;21.00;1.00;;;;;;4999318;28;20444;-51
2023/09/19 12:08:54;;;;;;;13.70;3.13;;;20.70;1.00;;;;;;4998330;28;20480;-52
2023/09/19 12:11:22;;;;;;;10.10;2.70;;;20.40;1.00;;;;;;5000349;28;20459;-53
2023/09/19 12:13:48;;;;;;;11.27;3.03;;;20.40;1.00;;;;;;4999983;28;22315;-51
2023/09/19 12:16:24;;;;;;;10.90;2.90;;;20.40;1.00;;;;;;4997059;28;20444;-51
2023/09/19 12:18:50;;;;;;;10.10;2.67;;;20.70;1.00;;;;;;4999833;28;20294;-51
2023/09/19 12:21:32;;;;;;;10.70;3.13;;;20.80;1.00;;;;;;4998695;28;20436;-52
2023/09/19 12:24:04;;;;;;;11.40;3.00;;;21.10;1.00;;;;;;4996310;28;20483;-52
2023/09/19 12:26:39;;;;;;;12.90;2.60;;;20.80;1.00;;;;;;4999771;28;20448;-53
2023/09/19 12:29:05;;;;;;;6.93;2.60;;;20.50;1.00;;;;;;4997120;28;20427;-52
2023/09/19 12:31:35;;;;;;;9.33;2.93;;;21.00;1.00;;;;;;4996783;28;20932;-52
2023/09/19 12:34:02;;;;;;;7.50;2.67;;;21.40;1.00;;;;;;4997023;28;20220;-52
2023/09/19 12:36:30;;;;;;;8.87;2.83;;;21.70;1.00;;;;;;4997056;28;20454;-52
2023/09/19 12:38:59;;;;;;;10.93;2.80;;;21.60;1.00;;;;;;4996315;28;20955;-52
2023/09/19 12:41:26;;;;;;;7.77;2.60;;;21.10;1.00;;;;;;5001637;28;20455;-52
2023/09/19 12:43:55;;;;;;;10.90;3.50;;;21.20;1.00;;;;;;4999371;28;20439;-51
2023/09/19 12:46:25;;;;;;;6.50;3.07;;;21.80;1.00;;;;;;5004148;28;20447;-52
2023/09/19 12:49:19;;;;;;;11.00;3.20;;;22.10;1.00;;;;;;4997522;28;20762;-52
2023/09/19 12:51:49;;;;;;;6.93;2.40;;;21.80;1.00;;;;;;5001810;28;20605;-52
2023/09/19 12:54:16;;;;;;;13.07;3.70;;;22.00;1.00;;;;;;4996579;28;20452;-52
2023/09/19 12:56:47;;;;;;;14.90;3.00;;;21.90;1.00;;;;;;4996335;28;20455;-52
2023/09/19 12:59:14;;;;;;;10.30;2.80;;;21.90;1.00;;;;;;4996825;28;20507;-52
2023/09/19 13:01:46;;;;;;;7.10;2.30;;;21.80;1.00;;;;;;5000583;28;20505;-52
2023/09/19 13:04:19;;;;;;;11.17;2.90;;;21.70;1.00;;;;;;4999564;28;20474;-52
2023/09/19 13:06:49;;;;;;;9.73;2.83;;;21.40;1.00;;;;;;5000317;28;20443;-52